Time;durP1;ratioP1;P1;durP2;ratioP2;P2;SDS_P1;SDS_P2;PMS_P1;PMS_P2;Temp;Humidity;BMP_temperature;BMP_pressure;BME280_temperature;BME280_humidity;BME280_pressure;Samples;Min_cycle;Max_cycle;Signal;HPM_P1;HPM_P2
2021/05/18 00:00:09;;;;;;;17.43;8.70;;;9.80;89.70;;;;;;5037350;28;20187;-89
2021/05/18 00:02:35;;;;;;;15.63;7.80;;;9.80;89.70;;;;;;5037690;28;20301;-89
2021/05/18 00:05:01;;;;;;;16.40;7.53;;;9.80;89.90;;;;;;5054977;28;20764;-89
2021/05/18 00:07:27;;;;;;;16.23;8.17;;;9.80;90.00;;;;;;5055074;28;20195;-89
2021/05/18 00:12:38;;;;;;;19.83;9.57;;;9.80;90.00;;;;;;5055216;28;20219;-89
2021/05/18 00:15:09;;;;;;;17.60;9.73;;;9.80;90.20;;;;;;5037142;28;20274;-89
2021/05/18 00:17:35;;;;;;;24.30;10.33;;;9.80;90.30;;;;;;5054903;28;20169;-89
2021/05/18 00:20:01;;;;;;;23.80;11.30;;;9.70;90.50;;;;;;5036915;28;20203;-89
2021/05/18 00:22:27;;;;;;;17.23;10.60;;;9.80;90.50;;;;;;5036992;28;20714;-89
2021/05/18 00:24:53;;;;;;;25.57;11.03;;;9.70;90.70;;;;;;5036809;28;20204;-89
2021/05/18 00:27:22;;;;;;;29.40;11.03;;;9.80;90.70;;;;;;5036890;28;20259;-89
2021/05/18 00:29:48;;;;;;;19.20;10.07;;;9.70;90.70;;;;;;5054647;28;20650;-89
2021/05/18 00:32:13;;;;;;;22.60;10.73;;;9.70;90.60;;;;;;5036620;28;20246;-89
2021/05/18 00:34:39;;;;;;;22.17;12.10;;;9.70;90.30;;;;;;5036719;28;20184;-89
2021/05/18 00:37:05;;;;;;;19.17;10.67;;;9.60;90.00;;;;;;5036627;28;20210;-89
2021/05/18 00:39:30;;;;;;;24.97;10.43;;;9.60;89.90;;;;;;5036685;28;20179;-89
2021/05/18 00:41:56;;;;;;;19.77;11.67;;;9.60;89.90;;;;;;5036552;28;20176;-89
2021/05/18 00:44:21;;;;;;;20.03;9.97;;;9.60;90.00;;;;;;5036484;28;20694;-89
2021/05/18 00:46:47;;;;;;;22.40;10.13;;;9.50;89.90;;;;;;5036523;28;20173;-89
2021/05/18 00:49:13;;;;;;;19.10;9.23;;;9.50;89.80;;;;;;5037315;28;20180;-89
2021/05/18 00:51:40;;;;;;;18.00;10.13;;;9.50;89.60;;;;;;5054283;28;20195;-89
2021/05/18 00:54:10;;;;;;;21.63;9.97;;;9.50;89.60;;;;;;5036413;28;20242;-89
2021/05/18 00:59:05;;;;;;;20.17;11.20;;;9.40;89.40;;;;;;5054328;28;20635;-89
2021/05/18 01:01:32;;;;;;;19.10;10.07;;;9.40;89.40;;;;;;5053948;28;20536;-89
2021/05/18 01:03:59;;;;;;;21.87;10.00;;;9.40;89.30;;;;;;5036113;28;20681;-89
2021/05/18 01:06:30;;;;;;;16.37;8.80;;;9.40;89.30;;;;;;5053807;28;20200;-89
2021/05/18 01:09:10;;;;;;;16.43;8.27;;;9.40;89.30;;;;;;5036147;28;20255;-89
2021/05/18 01:11:41;;;;;;;19.77;9.07;;;9.40;88.90;;;;;;5036064;28;20175;-89
2021/05/18 01:14:13;;;;;;;12.53;8.20;;;9.40;89.00;;;;;;5035825;28;20220;-89
2021/05/18 01:16:42;;;;;;;16.67;7.40;;;9.30;88.70;;;;;;5053741;28;20152;-89
2021/05/18 01:19:08;;;;;;;21.30;9.50;;;9.30;88.70;;;;;;5053688;28;20226;-89
2021/05/18 01:21:34;;;;;;;18.70;9.23;;;9.30;88.50;;;;;;5035803;28;20184;-89
2021/05/18 01:24:01;;;;;;;14.23;8.80;;;9.30;88.70;;;;;;5053582;28;20195;-89
2021/05/18 01:26:30;;;;;;;20.33;9.33;;;9.30;88.20;;;;;;5035818;28;20218;-89
2021/05/18 01:28:56;;;;;;;21.20;8.60;;;9.30;88.40;;;;;;5053601;28;20179;-87
2021/05/18 01:31:24;;;;;;;15.67;7.83;;;9.30;88.70;;;;;;5035721;28;20180;-87
2021/05/18 01:33:51;;;;;;;20.63;7.80;;;9.30;88.70;;;;;;5052966;28;20626;-87
2021/05/18 01:36:19;;;;;;;22.47;8.07;;;9.30;88.70;;;;;;5035554;28;20280;-87
2021/05/18 01:38:54;;;;;;;17.70;7.13;;;9.30;88.80;;;;;;5035502;28;20242;-87
2021/05/18 01:44:06;;;;;;;16.07;6.67;;;9.30;88.70;;;;;;5053340;28;20698;-87
2021/05/18 01:46:32;;;;;;;13.67;7.93;;;9.30;88.70;;;;;;5035472;28;20187;-87
2021/05/18 01:49:05;;;;;;;14.43;7.40;;;9.30;88.30;;;;;;5053394;28;20195;-87
2021/05/18 01:51:34;;;;;;;22.07;8.60;;;9.30;88.30;;;;;;5035446;28;20172;-87
2021/05/18 01:54:06;;;;;;;17.07;8.50;;;9.30;88.20;;;;;;5035282;28;20200;-87
2021/05/18 01:59:08;;;;;;;13.57;6.90;;;9.30;88.20;;;;;;5053437;28;20685;-88
2021/05/18 02:01:34;;;;;;;14.20;6.30;;;9.30;87.70;;;;;;5053217;28;20167;-89
2021/05/18 02:04:01;;;;;;;15.40;6.73;;;9.30;87.80;;;;;;5053054;28;20678;-89
2021/05/18 02:06:27;;;;;;;13.33;6.60;;;9.30;87.90;;;;;;5053028;28;20321;-87
2021/05/18 02:08:53;;;;;;;14.73;6.73;;;9.30;88.00;;;;;;5053150;28;20207;-89
2021/05/18 02:11:19;;;;;;;15.03;5.90;;;9.30;87.90;;;;;;5035228;28;20172;-89
2021/05/18 02:13:47;;;;;;;13.70;5.47;;;9.30;87.80;;;;;;5052917;28;20297;-89
2021/05/18 02:16:41;;;;;;;8.50;5.13;;;9.30;87.20;;;;;;5052999;28;20182;-89
2021/05/18 02:27:03;;;;;;;12.60;6.13;;;9.20;86.90;;;;;;5053563;28;20696;-89
2021/05/18 02:29:29;;;;;;;11.17;5.17;;;9.20;86.90;;;;;;5052956;28;20259;-89
2021/05/18 02:31:56;;;;;;;12.77;6.63;;;9.20;87.00;;;;;;5052808;28;20212;-89
2021/05/18 02:34:22;;;;;;;14.53;7.70;;;9.20;87.20;;;;;;5035158;28;20670;-89
2021/05/18 02:36:48;;;;;;;17.37;7.87;;;9.20;87.30;;;;;;5052955;28;20257;-89
2021/05/18 02:39:14;;;;;;;19.53;8.23;;;9.20;87.20;;;;;;5052847;28;20176;-89
2021/05/18 02:41:40;;;;;;;16.33;8.80;;;9.20;87.50;;;;;;5034921;28;20183;-89
2021/05/18 02:44:11;;;;;;;15.00;8.80;;;9.20;87.40;;;;;;5052690;28;20196;-89
2021/05/18 02:49:22;;;;;;;19.93;9.27;;;9.20;87.70;;;;;;5056885;28;20160;-89
2021/05/18 02:51:48;;;;;;;17.33;9.30;;;9.20;87.50;;;;;;5038621;28;20202;-89
2021/05/18 02:54:18;;;;;;;19.83;9.63;;;9.20;87.50;;;;;;5038548;28;20199;-89
2021/05/18 02:56:48;;;;;;;19.43;10.40;;;9.20;87.70;;;;;;5056339;28;20172;-89
2021/05/18 02:59:19;;;;;;;20.63;10.13;;;9.20;87.70;;;;;;5056348;28;20160;-89
2021/05/18 03:01:54;;;;;;;13.97;9.47;;;9.20;87.60;;;;;;5038584;28;20580;-89
2021/05/18 03:04:21;;;;;;;18.67;10.00;;;9.20;87.60;;;;;;5056216;28;20167;-88
2021/05/18 03:06:49;;;;;;;16.37;9.30;;;9.10;87.60;;;;;;5038393;28;20187;-87
2021/05/18 03:09:15;;;;;;;12.43;8.90;;;9.00;87.60;;;;;;5056156;28;20277;-87
2021/05/18 03:11:42;;;;;;;16.83;9.30;;;9.10;87.50;;;;;;5039010;28;20184;-87
2021/05/18 03:14:09;;;;;;;16.30;8.90;;;9.00;87.50;;;;;;5062817;22;20231;-89
2021/05/18 03:16:36;;;;;;;20.07;9.47;;;8.90;87.50;;;;;;5055946;28;20346;-89
2021/05/18 03:19:03;;;;;;;16.63;9.33;;;8.80;87.60;;;;;;5055882;28;20635;-89
2021/05/18 03:21:29;;;;;;;17.53;8.90;;;8.80;87.70;;;;;;5038040;28;20218;-89
2021/05/18 03:23:55;;;;;;;17.53;9.23;;;8.70;87.80;;;;;;5037982;28;20192;-89
2021/05/18 03:26:21;;;;;;;17.83;9.93;;;8.50;87.80;;;;;;5055927;28;20261;-89
2021/05/18 03:28:53;;;;;;;22.47;9.43;;;8.50;87.90;;;;;;5037977;28;20177;-88
2021/05/18 03:36:47;;;;;;;11.13;9.47;;;8.20;88.10;;;;;;5055841;28;20211;-90
2021/05/18 03:39:13;;;;;;;17.93;10.40;;;8.30;88.20;;;;;;5055568;28;20172;-90
2021/05/18 03:52:33;;;;;;;17.60;8.90;;;9.50;86.50;;;;;;5055432;28;20162;-89
2021/05/18 04:03:09;;;;;;;18.70;10.43;;;10.10;84.90;;;;;;5055013;28;20529;-89
2021/05/18 04:19:00;;;;;;;19.60;9.97;;;10.00;85.40;;;;;;5055087;28;20170;-89
2021/05/18 04:21:55;;;;;;;16.97;8.50;;;9.90;85.60;;;;;;5036923;28;20160;-89
2021/05/18 04:41:04;;;;;;;20.13;11.00;;;9.30;88.10;;;;;;5054614;28;20572;-87
2021/05/18 04:51:45;;;;;;;18.73;10.63;;;9.50;87.80;;;;;;5054675;28;20207;-87
2021/05/18 04:59:57;;;;;;;19.40;10.37;;;9.50;88.10;;;;;;5054954;28;20527;-88
2021/05/18 05:02:51;;;;;;;17.47;10.60;;;9.60;88.00;;;;;;5054360;28;20152;-88
2021/05/18 05:15:41;;;;;;;19.03;11.43;;;9.70;88.00;;;;;;5054270;28;20167;-87
2021/05/18 05:18:07;;;;;;;22.53;11.30;;;9.70;88.20;;;;;;5036016;28;20173;-87
2021/05/18 05:20:33;;;;;;;18.63;10.40;;;9.70;88.10;;;;;;5036079;28;20222;-87
2021/05/18 05:22:59;;;;;;;19.13;9.93;;;9.70;88.20;;;;;;5036140;28;20659;-87
2021/05/18 05:25:25;;;;;;;19.93;10.27;;;9.70;88.10;;;;;;5053449;28;20736;-87
2021/05/18 05:27:51;;;;;;;24.83;12.20;;;9.70;88.30;;;;;;5036001;28;20202;-87
2021/05/18 05:30:17;;;;;;;27.43;11.60;;;9.80;88.50;;;;;;5035819;28;20172;-87
2021/05/18 05:32:43;;;;;;;29.70;11.47;;;9.70;88.40;;;;;;5053565;28;20544;-87
2021/05/18 05:35:09;;;;;;;21.90;10.97;;;9.70;88.50;;;;;;5035608;28;20208;-86
2021/05/18 05:37:35;;;;;;;23.93;11.40;;;9.70;88.60;;;;;;5053540;28;20171;-87
2021/05/18 05:40:01;;;;;;;24.23;12.10;;;9.70;88.40;;;;;;5035943;28;20176;-86
2021/05/18 05:42:27;;;;;;;24.07;12.33;;;9.70;88.40;;;;;;5055613;28;20191;-86
2021/05/18 05:44:53;;;;;;;18.20;11.00;;;9.70;88.50;;;;;;5035620;28;20208;-86
2021/05/18 05:47:19;;;;;;;17.33;10.80;;;9.80;88.90;;;;;;5035758;28;20179;-86
2021/05/18 05:49:44;;;;;;;24.03;11.43;;;9.90;88.80;;;;;;5053343;28;20262;-86
2021/05/18 05:52:16;;;;;;;22.10;11.57;;;9.90;89.10;;;;;;5053287;28;20628;-86
2021/05/18 05:54:43;;;;;;;22.73;12.83;;;9.90;88.80;;;;;;5035659;28;20223;-87
2021/05/18 05:57:08;;;;;;;22.67;12.07;;;9.90;89.10;;;;;;5053394;28;20183;-87
2021/05/18 05:59:34;;;;;;;24.90;13.53;;;10.00;89.00;;;;;;5035746;28;20177;-87
2021/05/18 06:02:00;;;;;;;26.53;13.90;;;10.10;88.80;;;;;;5035269;28;20214;-87
2021/05/18 06:04:26;;;;;;;28.67;12.60;;;10.10;88.80;;;;;;5035268;28;20582;-87
2021/05/18 06:06:53;;;;;;;27.40;12.50;;;10.20;88.80;;;;;;5035535;28;20175;-87
2021/05/18 06:09:19;;;;;;;24.03;12.87;;;10.10;88.50;;;;;;5035493;28;20214;-87
2021/05/18 06:49:16;;;;;;;26.07;15.23;;;10.60;88.80;;;;;;5056931;28;20176;-87
2021/05/18 06:51:41;;;;;;;24.73;14.27;;;10.50;88.50;;;;;;5038728;28;20210;-88
2021/05/18 06:54:07;;;;;;;22.60;14.30;;;10.50;88.60;;;;;;5038680;28;20269;-87
2021/05/18 06:56:35;;;;;;;24.13;15.00;;;10.40;88.70;;;;;;5038714;28;20554;-88
2021/05/18 07:01:29;;;;;;;27.07;14.67;;;10.70;89.20;;;;;;5056741;28;20180;-87
2021/05/18 07:03:56;;;;;;;26.77;15.90;;;10.90;89.20;;;;;;5038536;28;20203;-88
2021/05/18 07:08:55;;;;;;;28.73;16.53;;;11.30;89.50;;;;;;5056795;28;20581;-87
2021/05/18 07:11:21;;;;;;;26.80;16.37;;;11.30;88.20;;;;;;5056069;28;20204;-88
2021/05/18 07:13:47;;;;;;;25.50;16.33;;;11.30;88.10;;;;;;5056062;28;20204;-87
2021/05/18 07:16:12;;;;;;;25.60;16.97;;;11.40;88.40;;;;;;5038685;28;20176;-87
2021/05/18 07:18:38;;;;;;;26.63;18.05;;;11.50;88.00;;;;;;5037385;28;20459;-88
2021/05/18 07:21:04;;;;;;;20.83;15.87;;;11.50;87.50;;;;;;5037990;28;20187;-87
2021/05/18 07:23:30;;;;;;;22.07;14.70;;;11.60;87.80;;;;;;5055709;28;20215;-87
2021/05/18 07:25:56;;;;;;;19.77;14.47;;;11.50;87.00;;;;;;5038457;28;20206;-87
2021/05/18 07:28:24;;;;;;;25.33;15.00;;;11.60;86.90;;;;;;5037933;28;20262;-87
2021/05/18 07:30:50;;;;;;;22.67;15.13;;;11.50;86.70;;;;;;5037710;28;20711;-87
2021/05/18 07:33:16;;;;;;;21.13;14.17;;;11.60;87.10;;;;;;5037497;28;20580;-87
2021/05/18 07:35:42;;;;;;;22.00;13.63;;;11.70;86.90;;;;;;5055624;28;20176;-88
2021/05/18 07:38:08;;;;;;;17.33;14.00;;;11.90;86.00;;;;;;5037693;28;20191;-87
2021/05/18 07:40:34;;;;;;;22.30;14.27;;;12.10;85.80;;;;;;5055880;28;20172;-88
2021/05/18 07:43:01;;;;;;;21.67;13.27;;;12.30;86.40;;;;;;5055350;28;20172;-88
2021/05/18 07:45:28;;;;;;;15.17;11.70;;;12.50;85.90;;;;;;5037487;28;20249;-88
2021/05/18 07:48:09;;;;;;;15.90;12.33;;;12.30;82.60;;;;;;5055658;28;20176;-88
2021/05/18 07:50:47;;;;;;;14.10;11.27;;;12.30;84.40;;;;;;5055355;28;20157;-89
2021/05/18 08:06:53;;;;;;;12.83;10.97;;;12.70;84.00;;;;;;5055682;28;20168;-88
2021/05/18 08:09:21;;;;;;;14.07;9.87;;;12.60;83.00;;;;;;5055252;28;20172;-88
2021/05/18 08:11:47;;;;;;;13.63;10.63;;;12.30;80.80;;;;;;5037121;28;20176;-88
2021/05/18 08:14:13;;;;;;;13.47;10.10;;;12.50;82.40;;;;;;5055036;28;20215;-87
2021/05/18 09:38:00;;;;;;;13.37;9.83;;;12.50;80.10;;;;;;5053511;28;20155;-91
2021/05/18 10:34:58;;;;;;;10.57;7.90;;;12.00;82.10;;;;;;5053133;28;20281;-90
2021/05/18 10:37:52;;;;;;;7.53;6.20;;;12.10;83.10;;;;;;5052869;28;20175;-89
2021/05/18 10:40:26;;;;;;;8.30;6.63;;;12.00;82.50;;;;;;5035095;28;20188;-89
2021/05/18 10:43:09;;;;;;;9.13;5.93;;;11.90;83.30;;;;;;5034925;28;20179;-90
2021/05/18 10:46:12;;;;;;;10.53;5.93;;;12.00;83.00;;;;;;5034824;28;20203;-89
2021/05/18 10:48:37;;;;;;;7.77;5.80;;;12.00;82.20;;;;;;5022274;28;20211;-89
2021/05/18 10:51:21;;;;;;;8.07;6.07;;;12.10;82.00;;;;;;5052731;28;20207;-89
2021/05/18 10:54:06;;;;;;;6.77;5.67;;;12.20;81.80;;;;;;5052616;28;20292;-89
2021/05/18 10:57:02;;;;;;;7.37;6.00;;;12.10;82.00;;;;;;5034845;28;20186;-89
2021/05/18 10:59:32;;;;;;;5.70;4.73;;;12.00;82.10;;;;;;5052723;28;20165;-89
2021/05/18 11:02:09;;;;;;;4.77;4.23;;;11.90;82.40;;;;;;5035239;28;20659;-89
2021/05/18 11:04:43;;;;;;;4.73;4.00;;;12.00;82.20;;;;;;5034668;28;20277;-89
2021/05/18 11:07:11;;;;;;;6.53;3.63;;;12.00;81.80;;;;;;5035980;28;20168;-89
2021/05/18 11:09:38;;;;;;;4.70;3.20;;;12.10;80.70;;;;;;5038920;28;20176;-89
2021/05/18 11:12:07;;;;;;;4.33;3.10;;;11.90;78.60;;;;;;5056216;28;20175;-89
2021/05/18 11:14:57;;;;;;;3.63;3.27;;;12.10;79.80;;;;;;5056163;28;20702;-89
2021/05/18 11:17:28;;;;;;;2.93;2.67;;;12.20;77.90;;;;;;5056526;28;20247;-89
2021/05/18 11:20:01;;;;;;;3.63;3.13;;;12.30;78.60;;;;;;5056173;28;20152;-89
2021/05/18 11:25:13;;;;;;;5.17;2.97;;;13.20;80.30;;;;;;5056208;28;20234;-88
2021/05/18 11:27:39;;;;;;;3.53;3.03;;;13.20;78.30;;;;;;5055780;28;20168;-88
2021/05/18 11:30:07;;;;;;;4.07;2.83;;;13.60;80.10;;;;;;5037916;28;20183;-88
2021/05/18 11:32:33;;;;;;;3.30;3.00;;;14.10;79.80;;;;;;5037884;28;20524;-89
2021/05/18 11:35:02;;;;;;;2.60;2.40;;;14.40;77.50;;;;;;5037782;28;20210;-88
2021/05/18 11:37:30;;;;;;;1.67;1.47;;;14.40;73.40;;;;;;5037683;28;20245;-89
2021/05/18 11:40:13;;;;;;;1.30;1.20;;;14.20;72.70;;;;;;5055606;28;20172;-89
2021/05/18 11:42:39;;;;;;;3.30;2.00;;;14.00;68.60;;;;;;5038236;28;20255;-88
2021/05/18 11:45:12;;;;;;;2.70;1.57;;;13.80;67.10;;;;;;5037717;28;20218;-88
2021/05/18 11:47:38;;;;;;;5.50;2.80;;;13.80;69.20;;;;;;5037587;28;20168;-88
2021/05/18 11:50:05;;;;;;;3.33;2.00;;;13.60;67.80;;;;;;5055368;28;20195;-88
2021/05/18 11:52:37;;;;;;;2.53;2.10;;;13.50;69.00;;;;;;5037363;28;20271;-88
2021/05/18 11:55:36;;;;;;;3.60;2.40;;;13.70;70.30;;;;;;5055410;28;20195;-89
2021/05/18 11:58:02;;;;;;;2.20;2.00;;;13.80;69.40;;;;;;5011777;28;20202;-87
2021/05/18 12:00:34;;;;;;;2.13;1.93;;;14.00;69.90;;;;;;5037261;28;20270;-88
2021/05/18 12:03:06;;;;;;;5.00;1.53;;;14.30;69.20;;;;;;5055082;28;20179;-88
2021/05/18 12:05:33;;;;;;;2.07;1.77;;;14.40;68.00;;;;;;5037072;28;20207;-87
2021/05/18 12:07:59;;;;;;;2.50;2.30;;;14.20;68.40;;;;;;5037430;28;20695;-88
2021/05/18 12:10:42;;;;;;;2.73;2.10;;;14.70;68.50;;;;;;5055214;28;20200;-88
2021/05/18 12:13:30;;;;;;;4.77;2.70;;;14.50;68.10;;;;;;5055440;28;20160;-89
2021/05/18 12:16:06;;;;;;;3.00;2.17;;;14.90;68.70;;;;;;5055130;28;20196;-89
2021/05/18 12:18:36;;;;;;;4.50;2.57;;;14.90;67.10;;;;;;5036941;28;20179;-89
2021/05/18 12:21:18;;;;;;;4.17;1.93;;;15.20;66.30;;;;;;5054785;28;20164;-88
2021/05/18 12:24:00;;;;;;;2.97;1.80;;;15.30;65.60;;;;;;5036776;28;20196;-87
2021/05/18 12:26:27;;;;;;;2.30;1.60;;;15.50;66.20;;;;;;5036790;28;20668;-87
2021/05/18 12:29:04;;;;;;;1.73;1.50;;;15.80;65.20;;;;;;5037052;28;20524;-88
2021/05/18 12:31:37;;;;;;;1.90;1.52;;;16.00;63.20;;;;;;5036753;28;20179;-88
2021/05/18 12:34:05;;;;;;;3.10;2.33;;;15.70;65.50;;;;;;5054482;28;20238;-88
2021/05/18 12:36:47;;;;;;;4.72;2.40;;;15.80;65.90;;;;;;5054428;28;20648;-88
2021/05/18 12:39:16;;;;;;;5.03;2.70;;;15.90;65.70;;;;;;5054510;28;20505;-88
2021/05/18 12:41:56;;;;;;;2.88;2.30;;;15.80;65.30;;;;;;5054377;28;20263;-88
2021/05/18 12:44:25;;;;;;;3.90;2.47;;;16.30;64.40;;;;;;5054260;28;20279;-88
2021/05/18 12:46:53;;;;;;;4.18;3.00;;;16.10;64.60;;;;;;5054195;28;20660;-88
2021/05/18 12:49:23;;;;;;;3.63;2.72;;;15.80;63.20;;;;;;5036371;28;20183;-87
2021/05/18 12:52:13;;;;;;;2.25;2.00;;;15.70;65.40;;;;;;5054089;28;20176;-88
2021/05/18 12:54:55;;;;;;;3.35;3.05;;;15.70;64.40;;;;;;5054121;28;20246;-89
2021/05/18 12:57:27;;;;;;;4.35;2.30;;;15.80;64.60;;;;;;5054013;28;20233;-88
2021/05/18 12:59:56;;;;;;;2.88;1.98;;;16.10;65.00;;;;;;5036268;28;20601;-88
2021/05/18 13:02:45;;;;;;;3.63;2.53;;;16.10;64.30;;;;;;5036061;28;20180;-88
2021/05/18 13:05:19;;;;;;;2.72;2.30;;;15.80;63.10;;;;;;5036329;28;20216;-88
2021/05/18 13:08:03;;;;;;;2.90;2.17;;;15.70;63.60;;;;;;5035998;28;20176;-87
2021/05/18 13:10:39;;;;;;;2.20;2.10;;;15.60;64.30;;;;;;5036002;28;20186;-87
2021/05/18 13:13:06;;;;;;;4.25;2.22;;;15.60;65.90;;;;;;5036755;28;20168;-88
2021/05/18 13:15:32;;;;;;;3.35;2.60;;;15.60;66.00;;;;;;5053587;28;20324;-88
2021/05/18 13:18:00;;;;;;;3.17;2.35;;;15.50;65.40;;;;;;5053635;28;20176;-88
2021/05/18 13:20:35;;;;;;;4.00;2.80;;;15.40;66.80;;;;;;5053793;28;20196;-88
2021/05/18 13:23:03;;;;;;;2.90;2.63;;;15.20;67.90;;;;;;5035805;28;20549;-88
2021/05/18 13:28:13;;;;;;;3.78;3.38;;;14.90;68.50;;;;;;5053890;28;20160;-88
2021/05/18 13:30:38;;;;;;;4.13;2.97;;;14.60;70.30;;;;;;5052711;28;20168;-87
2021/05/18 13:33:07;;;;;;;2.50;2.30;;;14.30;69.10;;;;;;5053427;28;20196;-86
2021/05/18 13:35:34;;;;;;;3.37;2.47;;;14.40;69.50;;;;;;5035464;28;20195;-88
2021/05/18 13:37:59;;;;;;;2.93;2.33;;;14.50;68.20;;;;;;5035563;28;20180;-88
2021/05/18 13:40:25;;;;;;;3.03;2.20;;;14.70;68.00;;;;;;5036137;28;20180;-88
2021/05/18 13:42:53;;;;;;;4.80;2.10;;;14.90;66.90;;;;;;5035549;28;20187;-88
2021/05/18 13:45:27;;;;;;;1.83;1.57;;;15.20;68.60;;;;;;5053522;28;20567;-88
2021/05/18 13:47:55;;;;;;;1.52;1.42;;;15.50;66.00;;;;;;5035712;28;20586;-88
2021/05/18 13:50:28;;;;;;;2.07;1.83;;;15.60;64.00;;;;;;5053474;28;20171;-88
2021/05/18 13:52:57;;;;;;;1.60;1.50;;;15.70;64.30;;;;;;5036328;28;20172;-88
2021/05/18 13:55:22;;;;;;;3.92;2.00;;;15.80;62.80;;;;;;5035444;28;20199;-89
2021/05/18 13:57:49;;;;;;;3.10;1.90;;;15.80;60.30;;;;;;5036256;28;20222;-88
2021/05/18 14:00:16;;;;;;;2.10;1.73;;;15.90;62.40;;;;;;5035294;28;20172;-88
2021/05/18 14:02:43;;;;;;;2.58;1.77;;;15.70;60.40;;;;;;5035307;28;20176;-88
2021/05/18 14:05:15;;;;;;;2.63;1.98;;;15.90;61.20;;;;;;5053011;28;20741;-89
2021/05/18 14:08:23;;;;;;;3.10;2.05;;;16.30;65.50;;;;;;5035237;28;20654;-89
2021/05/18 14:11:03;;;;;;;1.85;1.75;;;16.40;62.00;;;;;;5053113;28;20199;-88
2021/05/18 14:13:32;;;;;;;3.90;2.30;;;16.00;60.70;;;;;;5035116;28;20168;-88
2021/05/18 14:15:58;;;;;;;3.28;2.85;;;15.90;63.30;;;;;;5053322;28;20711;-88
2021/05/18 14:18:24;;;;;;;3.08;2.88;;;16.00;63.10;;;;;;5035085;28;20187;-88
2021/05/18 14:20:50;;;;;;;5.03;3.30;;;16.00;64.80;;;;;;5035114;28;20543;-88
2021/05/18 14:23:27;;;;;;;3.35;3.03;;;16.00;64.60;;;;;;5035093;28;20172;-88
2021/05/18 14:25:54;;;;;;;2.65;2.35;;;16.00;62.80;;;;;;5035110;28;20200;-88
2021/05/18 14:28:21;;;;;;;4.03;2.70;;;15.70;62.30;;;;;;5035094;28;20238;-88
2021/05/18 14:30:48;;;;;;;4.00;2.90;;;15.60;63.10;;;;;;5052903;28;20164;-88
2021/05/18 14:33:13;;;;;;;4.50;2.80;;;15.70;64.10;;;;;;5035110;28;20203;-88
2021/05/18 14:35:39;;;;;;;3.63;2.80;;;15.80;63.10;;;;;;5034840;28;20235;-88
2021/05/18 14:38:12;;;;;;;4.60;2.80;;;15.80;63.60;;;;;;5053107;28;20211;-88
2021/05/18 14:40:56;;;;;;;3.70;3.40;;;15.90;63.60;;;;;;5053272;28;20530;-88
2021/05/18 14:56:38;;;;;;;3.28;2.95;;;15.20;65.60;;;;;;5056736;28;20172;-88
2021/05/18 14:59:04;;;;;;;2.80;2.60;;;15.10;66.20;;;;;;5056351;28;20199;-88
2021/05/18 15:01:30;;;;;;;2.75;2.45;;;14.90;65.70;;;;;;5056348;28;20640;-88
2021/05/18 15:03:55;;;;;;;3.53;3.00;;;14.80;65.40;;;;;;5038306;28;20204;-89
2021/05/18 15:06:21;;;;;;;2.97;2.53;;;14.90;65.00;;;;;;5056162;28;20671;-88
2021/05/18 15:08:46;;;;;;;2.70;2.50;;;14.70;65.70;;;;;;5038679;28;20179;-88
2021/05/18 15:11:12;;;;;;;5.20;3.03;;;14.50;67.20;;;;;;5038318;28;20702;-88
2021/05/18 15:13:38;;;;;;;3.67;3.03;;;14.50;68.40;;;;;;5055790;28;20172;-88
2021/05/18 15:16:03;;;;;;;5.43;2.97;;;14.60;68.30;;;;;;5038406;28;20640;-88
2021/05/18 15:18:31;;;;;;;3.50;3.07;;;14.60;70.00;;;;;;5038157;28;20238;-87
2021/05/18 15:20:57;;;;;;;3.93;2.77;;;14.60;67.50;;;;;;5056006;28;20636;-87
2021/05/18 15:23:23;;;;;;;4.40;2.93;;;14.50;68.40;;;;;;5037913;28;20179;-87
2021/05/18 15:25:48;;;;;;;4.03;3.63;;;14.40;67.60;;;;;;5037896;28;20207;-88
2021/05/18 15:28:14;;;;;;;3.80;2.90;;;14.30;68.50;;;;;;5055839;28;20542;-88
2021/05/18 15:30:40;;;;;;;4.23;3.00;;;14.30;68.00;;;;;;5037854;28;20176;-88
2021/05/18 15:33:06;;;;;;;6.57;3.40;;;14.30;67.50;;;;;;5056040;28;20246;-88
2021/05/18 15:35:31;;;;;;;3.80;2.97;;;14.10;68.60;;;;;;5055595;28;20683;-87
2021/05/18 15:37:58;;;;;;;3.30;3.00;;;14.00;68.30;;;;;;5037778;28;20204;-88
2021/05/18 15:40:24;;;;;;;4.33;3.07;;;14.00;69.10;;;;;;5055601;28;20171;-88
2021/05/18 15:42:50;;;;;;;3.70;2.77;;;14.20;68.70;;;;;;5055526;28;20662;-88
2021/05/18 15:45:15;;;;;;;3.50;3.10;;;14.20;68.30;;;;;;5037656;28;20208;-88
2021/05/18 15:47:41;;;;;;;3.80;3.40;;;14.30;68.40;;;;;;5037586;28;20599;-88
2021/05/18 15:50:08;;;;;;;3.63;3.17;;;14.40;67.70;;;;;;5055427;28;20176;-88
2021/05/18 15:52:34;;;;;;;4.10;3.50;;;14.30;67.40;;;;;;5036649;28;20176;-87
2021/05/18 15:55:00;;;;;;;3.93;3.60;;;14.30;67.90;;;;;;5037316;28;20204;-87
2021/05/18 15:57:26;;;;;;;4.97;3.40;;;14.50;66.30;;;;;;5055308;28;20177;-87
2021/05/18 15:59:51;;;;;;;3.60;2.93;;;14.40;66.00;;;;;;5037280;28;20234;-86
2021/05/18 16:02:17;;;;;;;4.57;3.37;;;14.30;66.30;;;;;;5037230;28;20207;-87
2021/05/18 16:04:43;;;;;;;3.30;2.70;;;14.40;67.00;;;;;;5037096;28;20207;-88
2021/05/18 16:07:12;;;;;;;2.57;2.37;;;14.30;66.60;;;;;;5055156;28;20587;-88
2021/05/18 16:09:38;;;;;;;4.07;2.27;;;14.20;65.50;;;;;;5055041;28;20255;-88
2021/05/18 16:12:06;;;;;;;3.80;2.53;;;14.10;65.50;;;;;;5037165;28;20200;-87
2021/05/18 16:14:32;;;;;;;2.60;2.37;;;14.00;65.60;;;;;;5054775;28;20239;-87
2021/05/18 16:16:58;;;;;;;5.40;2.87;;;14.00;66.60;;;;;;5037343;28;20176;-87
2021/05/18 16:19:23;;;;;;;4.20;3.13;;;14.00;66.80;;;;;;5054775;28;20183;-87
2021/05/18 16:21:50;;;;;;;3.30;3.00;;;14.00;67.70;;;;;;5037004;28;20637;-89
2021/05/18 16:24:17;;;;;;;4.97;3.37;;;14.00;68.00;;;;;;5037504;28;20238;-89
2021/05/18 16:26:42;;;;;;;3.57;3.27;;;14.10;68.40;;;;;;5036876;28;20622;-88
2021/05/18 16:29:09;;;;;;;3.37;3.07;;;14.00;68.20;;;;;;5036941;28;20192;-88
2021/05/18 16:31:34;;;;;;;3.80;3.30;;;14.00;67.60;;;;;;5036765;28;20172;-88
2021/05/18 16:34:00;;;;;;;2.93;2.73;;;14.00;67.30;;;;;;5054479;28;20675;-88
2021/05/18 16:36:26;;;;;;;3.40;2.83;;;14.20;67.50;;;;;;5036620;28;20546;-88
2021/05/18 16:38:55;;;;;;;3.87;3.07;;;14.30;67.10;;;;;;5036622;28;20203;-88
2021/05/18 16:41:21;;;;;;;3.40;3.20;;;14.50;66.70;;;;;;5036562;28;20551;-88
2021/05/18 16:43:47;;;;;;;3.50;3.20;;;14.60;67.70;;;;;;5036511;28;20211;-88
2021/05/18 16:46:13;;;;;;;4.90;3.07;;;14.80;67.60;;;;;;5037194;28;20203;-88
2021/05/18 16:48:38;;;;;;;3.93;3.20;;;14.90;66.30;;;;;;5054312;28;20203;-88
2021/05/18 16:51:06;;;;;;;2.93;2.50;;;14.90;65.40;;;;;;5054232;28;20195;-88
2021/05/18 16:53:32;;;;;;;3.33;2.60;;;14.80;66.00;;;;;;5054052;28;20257;-87
2021/05/18 16:56:03;;;;;;;3.17;2.87;;;14.80;64.00;;;;;;5054157;28;20172;-88
2021/05/18 16:58:29;;;;;;;3.47;3.17;;;14.70;63.90;;;;;;5036166;28;20183;-88
2021/05/18 17:00:55;;;;;;;5.73;3.30;;;14.50;66.30;;;;;;5053994;28;20184;-88
2021/05/18 17:03:21;;;;;;;4.63;3.23;;;14.50;66.60;;;;;;5054259;28;20175;-88
2021/05/18 17:05:47;;;;;;;6.13;3.10;;;14.50;65.90;;;;;;5052925;28;20274;-88
2021/05/18 17:08:13;;;;;;;3.93;3.30;;;14.40;66.10;;;;;;5054206;28;20168;-88
2021/05/18 17:10:41;;;;;;;2.97;2.63;;;14.50;66.90;;;;;;5035992;28;20179;-88
2021/05/18 17:13:07;;;;;;;4.93;2.93;;;14.50;65.40;;;;;;5035966;28;20200;-88
2021/05/18 17:15:33;;;;;;;3.70;3.40;;;14.30;66.70;;;;;;5035748;28;20222;-88
2021/05/18 17:17:59;;;;;;;6.50;2.83;;;14.60;67.70;;;;;;5036364;28;20176;-88
2021/05/18 17:20:27;;;;;;;3.50;2.97;;;14.50;66.50;;;;;;5053671;28;20238;-88
2021/05/18 17:22:53;;;;;;;3.00;2.80;;;14.40;65.60;;;;;;5035809;28;20331;-88
2021/05/18 17:25:19;;;;;;;4.07;3.27;;;14.30;67.30;;;;;;5035610;28;20298;-88
2021/05/18 17:27:45;;;;;;;4.97;3.50;;;14.20;67.30;;;;;;5035802;28;20591;-89
2021/05/18 17:30:13;;;;;;;6.67;3.30;;;14.20;66.40;;;;;;5035715;28;20182;-89
2021/05/18 17:32:39;;;;;;;6.77;3.53;;;14.00;68.30;;;;;;5035705;28;20172;-89
2021/05/18 17:35:06;;;;;;;6.30;3.50;;;14.20;68.30;;;;;;5035686;28;20234;-89
2021/05/18 17:37:32;;;;;;;3.50;3.20;;;14.00;68.20;;;;;;5035517;28;20176;-89
2021/05/18 17:39:58;;;;;;;4.03;3.63;;;14.00;68.50;;;;;;5035604;28;20179;-89
2021/05/18 17:42:23;;;;;;;4.27;3.40;;;14.10;68.50;;;;;;5053425;28;20206;-88
2021/05/18 17:44:49;;;;;;;4.50;3.80;;;14.20;68.50;;;;;;5035304;28;20198;-88
2021/05/18 17:47:16;;;;;;;5.50;4.17;;;13.90;69.70;;;;;;5035462;28;20263;-88
2021/05/18 17:49:42;;;;;;;4.67;4.20;;;13.90;69.60;;;;;;5035427;28;20183;-88
2021/05/18 17:52:07;;;;;;;4.57;3.77;;;13.80;70.30;;;;;;5035415;28;20176;-88
2021/05/18 17:54:38;;;;;;;4.77;4.07;;;13.80;70.30;;;;;;5035337;28;20192;-87
2021/05/18 17:57:05;;;;;;;5.60;3.87;;;13.80;70.50;;;;;;5035421;28;20222;-87
2021/05/18 17:59:31;;;;;;;7.73;4.17;;;13.70;69.70;;;;;;5036036;28;20250;-87
2021/05/18 18:02:00;;;;;;;6.70;4.17;;;13.60;70.20;;;;;;5053108;28;20176;-87